Time;durP1;ratioP1;P1;durP2;ratioP2;P2;SDS_P1;SDS_P2;PMS_P1;PMS_P2;Temp;Humidity;BMP_temperature;BMP_pressure;BME280_temperature;BME280_humidity;BME280_pressure;Samples;Min_cycle;Max_cycle;Signal;HPM_P1;HPM_P2
2024/02/03 00:00:32;;;;;;;8.52;5.38;;;13.70;69.90;15.30;102402.00;;;;5028319;28;20585;-79
2024/02/03 00:02:58;;;;;;;8.32;5.60;;;13.70;69.80;15.30;102399.00;;;;5034035;28;20199;-79
2024/02/03 00:05:26;;;;;;;9.13;5.50;;;13.80;69.90;15.30;102395.00;;;;5038661;28;20204;-79
2024/02/03 00:07:54;;;;;;;13.00;5.32;;;13.70;69.80;15.30;102398.00;;;;5030541;28;20250;-79
2024/02/03 00:10:21;;;;;;;8.38;4.50;;;13.70;69.70;15.30;102402.00;;;;5029635;28;20199;-80
2024/02/03 00:12:48;;;;;;;8.23;5.20;;;13.70;69.70;15.30;102400.00;;;;5031208;28;20667;-79
2024/02/03 00:15:15;;;;;;;8.40;5.10;;;13.70;69.70;15.30;102396.00;;;;5044390;28;20223;-79
2024/02/03 00:17:43;;;;;;;6.28;5.10;;;13.70;69.70;15.30;102396.00;;;;5042183;28;20204;-80
2024/02/03 00:20:12;;;;;;;8.35;4.30;;;13.70;69.70;15.30;102400.00;;;;5037105;28;20555;-79
2024/02/03 00:22:39;;;;;;;11.02;4.68;;;13.70;69.70;15.30;102397.00;;;;5023945;28;20210;-80
2024/02/03 00:25:08;;;;;;;10.80;5.50;;;13.70;69.70;15.30;102385.00;;;;5043239;28;21003;-80
2024/02/03 00:27:35;;;;;;;11.30;5.88;;;13.70;69.70;15.30;102394.00;;;;5030433;28;20341;-79
2024/02/03 00:30:03;;;;;;;6.63;4.07;;;13.70;69.70;15.30;102384.00;;;;5040374;28;21111;-80
2024/02/03 00:32:30;;;;;;;8.02;5.07;;;13.70;69.60;15.30;102385.00;;;;5049895;28;20265;-80
2024/02/03 00:34:57;;;;;;;8.82;4.57;;;13.70;69.60;15.30;102390.00;;;;5032959;28;20289;-80
2024/02/03 00:37:24;;;;;;;6.80;4.07;;;13.70;69.60;15.30;102390.00;;;;5029117;28;20220;-79
2024/02/03 00:39:51;;;;;;;7.88;4.93;;;13.70;69.70;15.20;102392.00;;;;5043399;28;20196;-80
2024/02/03 00:42:19;;;;;;;7.03;3.63;;;13.70;69.60;15.20;102385.00;;;;5044017;28;20669;-80
2024/02/03 00:44:46;;;;;;;9.98;4.22;;;13.70;69.60;15.20;102391.00;;;;5040127;28;20203;-80
2024/02/03 00:47:13;;;;;;;7.68;4.80;;;13.70;69.60;15.20;102388.00;;;;5039291;28;20199;-80
2024/02/03 00:49:40;;;;;;;7.45;3.80;;;13.70;69.60;15.20;102391.00;;;;5030937;28;20198;-80
2024/02/03 00:52:08;;;;;;;6.57;3.70;;;13.70;69.60;15.20;102385.00;;;;5033866;28;20406;-80
2024/02/03 00:54:35;;;;;;;7.10;4.00;;;13.70;69.70;15.20;102377.00;;;;5027663;28;20632;-80
2024/02/03 00:57:02;;;;;;;5.97;3.45;;;13.70;69.70;15.20;102383.00;;;;5029594;28;20235;-80
2024/02/03 00:59:30;;;;;;;8.50;3.63;;;13.70;69.70;15.20;102375.00;;;;5028877;28;20196;-80
2024/02/03 01:01:57;;;;;;;5.15;3.00;;;13.70;69.70;15.20;102367.00;;;;5039568;28;20208;-80
2024/02/03 01:04:24;;;;;;;6.53;3.13;;;13.70;69.70;15.20;102367.00;;;;5028147;28;20200;-79
2024/02/03 01:06:55;;;;;;;4.78;2.95;;;13.70;69.70;15.30;102372.00;;;;5029488;28;20631;-79
2024/02/03 01:09:22;;;;;;;4.88;2.80;;;13.70;69.70;15.30;102370.00;;;;5028988;28;20196;-80
2024/02/03 01:11:49;;;;;;;5.28;3.15;;;13.80;69.70;15.30;102376.00;;;;5039806;28;20201;-80
2024/02/03 01:14:16;;;;;;;5.20;3.42;;;13.80;69.70;15.30;102378.00;;;;5028920;28;20678;-80
2024/02/03 01:16:45;;;;;;;7.90;3.83;;;13.80;69.70;15.30;102373.00;;;;5043273;22;20250;-80
2024/02/03 01:19:12;;;;;;;6.57;2.45;;;13.80;69.70;15.30;102366.00;;;;5051391;28;20551;-79
2024/02/03 01:21:39;;;;;;;5.35;2.75;;;13.80;69.60;15.30;102364.00;;;;5051660;28;20200;-79
2024/02/03 01:26:32;;;;;;;6.30;2.70;;;13.80;69.60;15.40;102363.00;;;;5099567;22;20643;-78
2024/02/03 01:28:59;;;;;;;5.20;2.63;;;13.80;69.60;15.40;102363.00;;;;5047954;28;20200;-78
2024/02/03 01:31:26;;;;;;;7.95;2.55;;;13.80;69.60;15.40;102366.00;;;;5050774;28;20192;-80
2024/02/03 01:33:54;;;;;;;4.63;2.38;;;13.80;69.50;15.30;102357.00;;;;5051944;28;20188;-80
2024/02/03 01:36:21;;;;;;;8.38;2.47;;;13.80;69.50;15.40;102371.00;;;;5050113;28;20245;-79
2024/02/03 01:38:51;;;;;;;4.45;2.58;;;13.80;69.50;15.40;102362.00;;;;5051577;28;20600;-79
2024/02/03 01:41:21;;;;;;;5.53;2.47;;;13.90;69.60;15.40;102355.00;;;;5051965;28;20284;-78
2024/02/03 01:43:48;;;;;;;5.63;3.08;;;13.90;69.60;15.40;102354.00;;;;5039426;28;20208;-79
2024/02/03 01:46:17;;;;;;;7.57;2.67;;;13.90;69.60;15.40;102358.00;;;;5028842;28;20200;-79
2024/02/03 01:51:13;;;;;;;8.27;2.50;;;13.90;69.50;15.40;102360.00;;;;5102588;22;20581;-79
2024/02/03 01:53:41;;;;;;;4.32;2.38;;;13.90;69.50;15.40;102352.00;;;;5050796;28;20247;-79
2024/02/03 01:56:09;;;;;;;7.32;2.55;;;13.90;69.50;15.40;102342.00;;;;5050058;28;20235;-79
2024/02/03 01:58:37;;;;;;;5.50;2.13;;;14.00;69.50;15.40;102356.00;;;;5051608;28;20184;-80
2024/02/03 02:01:05;;;;;;;6.63;2.70;;;14.00;69.70;15.40;102348.00;;;;5051781;28;20183;-80
2024/02/03 02:03:32;;;;;;;5.70;2.40;;;14.00;69.50;15.40;102353.00;;;;5050527;28;20184;-78
2024/02/03 02:06:00;;;;;;;5.00;2.22;;;14.00;69.50;15.40;102348.00;;;;5049849;28;20202;-79
2024/02/03 02:08:38;;;;;;;5.10;2.85;;;14.00;69.40;15.40;102349.00;;;;5051494;28;20202;-79
2024/02/03 02:11:06;;;;;;;5.30;2.25;;;14.00;69.40;15.50;102356.00;;;;5051566;28;20184;-79
2024/02/03 02:13:33;;;;;;;6.07;2.60;;;14.00;69.40;15.50;102349.00;;;;5050534;28;20187;-78
2024/02/03 02:16:00;;;;;;;5.85;2.42;;;14.00;69.40;15.50;102352.00;;;;5049741;28;20269;-80
2024/02/03 02:18:27;;;;;;;7.88;2.83;;;14.00;69.40;15.50;102342.00;;;;5050899;28;20531;-79
2024/02/03 02:20:56;;;;;;;7.43;2.45;;;14.00;69.40;15.50;102348.00;;;;5049852;28;20278;-79
2024/02/03 02:23:23;;;;;;;4.65;2.30;;;14.00;69.30;15.50;102347.00;;;;5035731;28;20294;-79
2024/02/03 02:25:50;;;;;;;7.28;2.42;;;14.00;70.00;15.60;102338.00;;;;5039201;28;20298;-79
2024/02/03 02:28:17;;;;;;;9.07;2.80;;;14.10;69.40;15.50;102345.00;;;;5049370;28;20191;-78
2024/02/03 02:30:44;;;;;;;4.60;2.47;;;14.10;69.40;15.60;102340.00;;;;5047766;28;20192;-79
2024/02/03 02:33:12;;;;;;;5.30;2.40;;;14.10;69.40;15.60;102335.00;;;;5040771;22;20259;-79
2024/02/03 02:35:39;;;;;;;6.47;2.53;;;14.10;69.40;15.60;102339.00;;;;5027537;28;20200;-80
2024/02/03 02:38:08;;;;;;;2.88;1.90;;;14.10;69.40;15.60;102334.00;;;;5029061;28;20724;-80
2024/02/03 02:40:34;;;;;;;5.97;2.63;;;14.00;69.40;15.60;102333.00;;;;5030547;28;20200;-78
2024/02/03 02:43:04;;;;;;;4.40;2.30;;;14.10;69.50;15.60;102332.00;;;;5031811;28;20195;-77
2024/02/03 02:45:31;;;;;;;7.53;2.25;;;14.10;69.50;15.60;102329.00;;;;5029561;28;20635;-80
2024/02/03 02:47:58;;;;;;;6.78;2.30;;;14.10;69.50;15.60;102320.00;;;;5030360;28;20204;-80
2024/02/03 02:50:25;;;;;;;3.53;2.08;;;14.10;69.50;15.60;102324.00;;;;5030141;28;20200;-80
2024/02/03 02:52:52;;;;;;;7.18;2.30;;;14.00;69.40;15.60;102322.00;;;;5031367;28;20890;-81
2024/02/03 02:55:20;;;;;;;3.10;1.88;;;14.00;69.50;15.50;102316.00;;;;5029585;28;20208;-80
2024/02/03 02:57:47;;;;;;;6.28;2.50;;;14.00;69.50;15.60;102318.00;;;;5029930;28;20224;-80
2024/02/03 03:00:15;;;;;;;5.85;2.33;;;14.00;69.50;15.60;102319.00;;;;5028546;28;20200;-80
2024/02/03 03:02:42;;;;;;;3.17;2.03;;;14.00;69.60;15.50;102320.00;;;;5030889;28;20188;-80
2024/02/03 03:05:11;;;;;;;6.10;2.03;;;14.00;69.60;15.50;102322.00;;;;5030831;28;20200;-80
2024/02/03 03:07:39;;;;;;;4.80;1.88;;;14.00;69.70;15.60;102325.00;;;;5030870;28;20216;-80
2024/02/03 03:10:07;;;;;;;3.80;2.00;;;14.00;69.70;15.50;102328.00;;;;5029362;28;20207;-80
2024/02/03 03:12:36;;;;;;;7.20;1.88;;;14.00;69.70;15.50;102327.00;;;;5030551;28;20212;-80
2024/02/03 03:15:03;;;;;;;4.93;2.25;;;14.00;69.70;15.50;102323.00;;;;5030969;28;20197;-79
2024/02/03 03:17:30;;;;;;;5.80;2.28;;;14.00;69.70;15.60;102315.00;;;;5028269;28;20224;-79
2024/02/03 03:19:57;;;;;;;4.43;1.88;;;14.00;69.70;15.60;102321.00;;;;5027271;28;20200;-80
2024/02/03 03:22:25;;;;;;;7.90;2.28;;;14.00;70.50;15.50;102318.00;;;;5030793;28;20188;-80
2024/02/03 03:24:52;;;;;;;4.78;2.40;;;14.00;69.80;15.60;102314.00;;;;5030883;28;20201;-77
2024/02/03 03:27:19;;;;;;;5.20;1.83;;;14.00;70.50;15.50;102317.00;;;;5028980;28;20203;-77
2024/02/03 03:29:50;;;;;;;4.22;2.10;;;14.00;69.70;15.50;102318.00;;;;5028905;28;20215;-80
2024/02/03 03:32:16;;;;;;;5.60;1.80;;;14.00;69.80;15.60;102316.00;;;;5029491;28;20701;-80
2024/02/03 03:34:44;;;;;;;4.43;2.03;;;14.00;69.80;15.60;102309.00;;;;5030235;28;20200;-80
2024/02/03 03:37:11;;;;;;;7.28;1.90;;;14.00;69.80;15.60;102314.00;;;;5029560;28;20231;-80
2024/02/03 03:39:38;;;;;;;4.15;2.17;;;14.00;69.80;15.60;102311.00;;;;5028418;28;20231;-80
2024/02/03 03:42:05;;;;;;;4.13;2.10;;;14.00;69.80;15.60;102309.00;;;;5029730;28;20196;-80
2024/02/03 03:44:32;;;;;;;6.05;1.63;;;14.00;69.70;15.60;102306.00;;;;5031046;28;20204;-80
2024/02/03 03:47:01;;;;;;;5.53;1.73;;;14.00;69.80;15.60;102298.00;;;;5028961;28;20670;-80
2024/02/03 03:49:32;;;;;;;6.25;1.67;;;14.00;69.70;15.60;102295.00;;;;5028300;28;20242;-80
2024/02/03 03:51:59;;;;;;;7.93;2.22;;;14.00;69.70;15.60;102298.00;;;;5030150;28;20200;-80
2024/02/03 03:54:26;;;;;;;4.82;1.58;;;14.00;69.70;15.60;102304.00;;;;5019131;28;20255;-80
2024/02/03 03:56:53;;;;;;;3.67;1.40;;;14.10;69.80;15.60;102301.00;;;;5029603;28;20231;-80
2024/02/03 03:59:20;;;;;;;4.70;1.70;;;14.00;69.70;15.60;102310.00;;;;5028649;28;20204;-80
2024/02/03 04:01:49;;;;;;;4.93;1.80;;;14.00;69.70;15.60;102288.00;;;;5028906;28;20781;-79
2024/02/03 04:04:18;;;;;;;3.58;2.00;;;14.10;69.80;15.60;102319.00;;;;5029004;28;20231;-80
2024/02/03 04:06:46;;;;;;;9.10;2.65;;;14.10;69.80;15.60;102323.00;;;;5030179;28;20312;-80
2024/02/03 04:09:15;;;;;;;4.18;1.35;;;14.10;69.80;15.60;102322.00;;;;5024192;28;20209;-79
2024/02/03 04:11:42;;;;;;;3.15;1.40;;;14.10;69.70;15.70;102318.00;;;;5028275;28;20207;-79
2024/02/03 04:14:09;;;;;;;3.28;1.55;;;14.10;69.70;15.70;102321.00;;;;5030288;28;20188;-79
2024/02/03 04:16:36;;;;;;;4.88;1.42;;;14.10;69.70;15.70;102313.00;;;;5029667;28;20223;-79
2024/02/03 04:19:03;;;;;;;5.68;1.73;;;14.10;69.60;15.70;102304.00;;;;5029547;28;20216;-79
2024/02/03 04:21:33;;;;;;;6.90;2.10;;;14.10;69.60;15.70;102308.00;;;;5028062;28;20212;-79
2024/02/03 04:24:00;;;;;;;3.40;1.42;;;14.10;69.50;15.70;102314.00;;;;5029470;28;20246;-79
2024/02/03 04:26:27;;;;;;;4.50;1.70;;;14.10;69.50;15.70;102307.00;;;;5027837;28;20740;-80
2024/02/03 04:28:54;;;;;;;4.43;1.40;;;14.10;69.50;15.70;102307.00;;;;5027843;28;20199;-79
2024/02/03 04:31:21;;;;;;;3.75;1.50;;;14.10;69.50;15.70;102303.00;;;;5028552;28;20223;-79
2024/02/03 04:33:48;;;;;;;4.03;1.17;;;14.20;69.50;15.70;102295.00;;;;5029595;28;20608;-80
2024/02/03 04:36:15;;;;;;;5.95;2.00;;;14.10;69.40;15.70;102297.00;;;;5028073;28;20211;-80
2024/02/03 04:38:44;;;;;;;7.10;1.90;;;14.10;69.40;15.70;102305.00;;;;5027120;28;20382;-80
2024/02/03 04:41:23;;;;;;;8.50;1.90;;;14.10;69.30;15.60;102298.00;;;;5029160;28;20199;-80
2024/02/03 04:43:51;;;;;;;3.22;1.40;;;14.20;69.40;15.70;102307.00;;;;5028876;28;20196;-79
2024/02/03 04:46:18;;;;;;;7.05;1.88;;;14.10;69.30;15.70;102307.00;;;;5027324;28;20204;-79
2024/02/03 04:48:45;;;;;;;3.78;1.13;;;14.20;69.40;15.70;102303.00;;;;5027821;28;20197;-79
2024/02/03 04:51:13;;;;;;;6.60;1.73;;;14.20;69.50;15.70;102302.00;;;;5013188;28;20563;-80
2024/02/03 04:53:40;;;;;;;3.78;1.98;;;14.10;69.30;15.70;102301.00;;;;5028941;28;20193;-79
2024/02/03 04:56:09;;;;;;;5.15;1.27;;;14.10;69.20;15.70;102302.00;;;;5028358;28;20250;-79
2024/02/03 04:58:36;;;;;;;6.55;1.58;;;14.10;69.30;15.70;102297.00;;;;5026599;28;20223;-80
2024/02/03 05:01:04;;;;;;;4.45;1.30;;;14.20;69.30;15.70;102290.00;;;;5028101;28;20577;-79
2024/02/03 05:03:31;;;;;;;5.05;1.08;;;14.20;69.40;15.70;102280.00;;;;5029159;28;20575;-79
2024/02/03 05:06:03;;;;;;;2.97;1.08;;;14.20;69.30;15.70;102274.00;;;;5029166;28;20261;-80
2024/02/03 05:08:30;;;;;;;5.78;1.65;;;14.20;69.30;15.80;102288.00;;;;5017628;28;20196;-79
2024/02/03 05:10:57;;;;;;;4.55;1.48;;;14.20;69.30;15.70;102285.00;;;;5026978;28;20197;-80
2024/02/03 05:13:26;;;;;;;5.05;1.60;;;14.20;69.30;15.70;102290.00;;;;5028845;28;20196;-79
2024/02/03 05:15:53;;;;;;;3.58;1.05;;;14.20;70.00;15.70;102285.00;;;;5029449;28;20205;-80
2024/02/03 05:18:21;;;;;;;3.10;1.13;;;14.20;69.20;15.70;102284.00;;;;5026719;28;20224;-80
2024/02/03 05:20:48;;;;;;;9.30;1.67;;;14.20;69.30;15.80;102287.00;;;;5027291;28;20195;-79
2024/02/03 05:23:15;;;;;;;5.05;1.90;;;14.20;69.30;15.80;102273.00;;;;5027633;28;20192;-79
2024/02/03 05:25:42;;;;;;;7.57;1.30;;;14.20;69.30;15.80;102285.00;;;;5027305;28;20196;-79
2024/02/03 05:28:09;;;;;;;2.83;1.15;;;14.20;69.20;15.80;102274.00;;;;5028383;28;20207;-79
2024/02/03 05:30:38;;;;;;;6.60;1.52;;;14.20;69.20;15.70;102274.00;;;;5027073;28;20200;-79
2024/02/03 05:33:05;;;;;;;3.15;1.02;;;14.20;69.20;15.70;102281.00;;;;5026846;28;20224;-80
2024/02/03 05:35:32;;;;;;;4.65;1.15;;;14.20;69.20;15.70;102273.00;;;;5017529;28;20199;-79
2024/02/03 05:37:59;;;;;;;4.65;1.13;;;14.20;69.20;15.70;102277.00;;;;5027700;28;20243;-79
2024/02/03 05:40:26;;;;;;;5.25;1.58;;;14.20;69.20;15.80;102277.00;;;;5026155;28;20200;-80
2024/02/03 05:42:53;;;;;;;6.82;1.02;;;14.20;69.20;15.80;102284.00;;;;5041979;28;20679;-79
2024/02/03 05:45:22;;;;;;;6.38;1.98;;;14.20;69.20;15.80;102285.00;;;;5029458;28;20215;-80
2024/02/03 05:47:50;;;;;;;6.10;1.55;;;14.20;69.20;15.80;102296.00;;;;5026435;28;20201;-79
2024/02/03 05:50:17;;;;;;;4.55;0.90;;;14.20;69.20;15.80;102291.00;;;;5026374;28;20270;-79
2024/02/03 05:52:44;;;;;;;4.47;1.30;;;14.20;69.20;15.80;102294.00;;;;5027858;28;20200;-80
2024/02/03 05:55:12;;;;;;;3.92;1.75;;;14.20;69.10;15.80;102292.00;;;;5027534;28;20207;-79
2024/02/03 05:57:49;;;;;;;5.22;1.38;;;14.20;69.10;15.70;102289.00;;;;5026889;28;20235;-80
2024/02/03 06:00:17;;;;;;;5.50;1.40;;;14.20;69.10;15.80;102287.00;;;;5026749;28;20206;-80
2024/02/03 06:02:45;;;;;;;3.35;1.42;;;14.20;69.10;15.80;102277.00;;;;5027141;28;20196;-79
2024/02/03 06:05:14;;;;;;;3.95;1.60;;;14.20;69.10;15.80;102284.00;;;;5026502;28;20207;-80
2024/02/03 06:07:41;;;;;;;10.70;1.38;;;14.20;69.10;15.80;102289.00;;;;5027729;28;20199;-80
2024/02/03 06:10:09;;;;;;;6.80;1.40;;;14.20;69.10;15.80;102285.00;;;;5027326;28;20200;-80
2024/02/03 06:12:36;;;;;;;3.90;1.27;;;14.30;69.10;15.80;102284.00;;;;5042805;28;20210;-80
2024/02/03 06:15:03;;;;;;;4.75;2.05;;;14.20;69.10;15.80;102276.00;;;;5030308;28;20203;-80
2024/02/03 06:17:30;;;;;;;5.80;1.33;;;14.20;69.00;15.80;102278.00;;;;5026088;28;20216;-79
2024/02/03 06:20:04;;;;;;;4.10;1.40;;;14.20;69.00;15.80;102274.00;;;;5023337;28;20207;-79
2024/02/03 06:22:33;;;;;;;2.47;1.05;;;14.20;69.00;15.80;102277.00;;;;5020641;28;20310;-80
2024/02/03 06:25:00;;;;;;;5.47;1.90;;;14.20;69.00;15.80;102280.00;;;;5026494;28;20196;-80
2024/02/03 06:27:27;;;;;;;4.43;1.65;;;14.20;69.10;15.80;102281.00;;;;5008821;28;20210;-80
2024/02/03 06:29:54;;;;;;;4.97;1.10;;;14.20;68.90;15.80;102285.00;;;;5027202;28;20195;-79
2024/02/03 06:32:21;;;;;;;2.88;1.02;;;14.20;68.90;15.70;102274.00;;;;5027148;28;20594;-80
2024/02/03 06:34:47;;;;;;;7.45;1.65;;;14.20;68.90;15.70;102276.00;;;;5027264;28;20215;-80
2024/02/03 06:37:15;;;;;;;4.97;1.35;;;14.20;68.90;15.70;102281.00;;;;5023932;28;20223;-80
2024/02/03 06:39:44;;;;;;;6.05;1.70;;;14.20;69.00;15.70;102285.00;;;;5026170;28;20223;-80
2024/02/03 06:42:11;;;;;;;6.72;1.65;;;14.20;69.00;15.70;102285.00;;;;5019382;28;20211;-80
2024/02/03 06:44:38;;;;;;;4.85;1.42;;;14.20;69.00;15.70;102289.00;;;;5026690;28;20204;-80
2024/02/03 06:47:06;;;;;;;3.78;1.20;;;14.20;69.00;15.70;102290.00;;;;5026357;28;20207;-81
2024/02/03 06:49:33;;;;;;;10.18;2.00;;;14.20;69.00;15.70;102291.00;;;;5026027;28;20196;-78
2024/02/03 06:52:00;;;;;;;7.05;2.08;;;14.20;69.00;15.70;102286.00;;;;5027930;28;20212;-78
2024/02/03 06:54:30;;;;;;;5.07;1.63;;;14.20;69.00;15.80;102274.00;;;;5027096;28;20283;-79
2024/02/03 06:56:58;;;;;;;6.55;1.60;;;14.20;69.00;15.70;102277.00;;;;5023925;28;20196;-79
2024/02/03 06:59:25;;;;;;;4.82;1.90;;;14.20;69.00;15.70;102281.00;;;;5027449;28;20231;-78
2024/02/03 07:01:55;;;;;;;5.60;2.03;;;14.20;69.00;15.70;102273.00;;;;5027578;28;20577;-78
2024/02/03 07:04:22;;;;;;;7.32;1.70;;;14.20;69.00;15.80;102286.00;;;;5025796;28;20196;-79
2024/02/03 07:06:49;;;;;;;6.47;2.38;;;14.20;69.00;15.80;102290.00;;;;5023846;28;20702;-79
2024/02/03 07:09:16;;;;;;;4.95;2.00;;;14.20;69.10;15.80;102287.00;;;;5025987;28;20567;-79
2024/02/03 07:11:43;;;;;;;6.35;1.80;;;14.20;69.10;15.80;102285.00;;;;5022236;28;20205;-80
2024/02/03 07:14:11;;;;;;;5.60;1.58;;;14.20;69.10;15.70;102283.00;;;;5019804;28;20208;-79
2024/02/03 07:16:38;;;;;;;4.97;1.90;;;14.20;69.10;15.80;102283.00;;;;5024430;28;20574;-79
2024/02/03 07:19:05;;;;;;;4.53;1.80;;;14.20;69.10;15.80;102285.00;;;;5020779;28;20605;-80
2024/02/03 07:21:32;;;;;;;6.05;2.45;;;14.20;69.10;15.80;102291.00;;;;5021991;28;20196;-79
2024/02/03 07:23:59;;;;;;;6.70;2.47;;;14.20;69.10;15.70;102303.00;;;;5027797;28;20203;-78
2024/02/03 07:26:26;;;;;;;5.43;1.85;;;14.20;69.00;15.70;102301.00;;;;5027411;28;20196;-79
2024/02/03 07:28:53;;;;;;;9.27;2.67;;;14.20;69.00;15.80;102308.00;;;;5028225;28;20199;-79
2024/02/03 07:31:28;;;;;;;6.05;2.08;;;14.20;69.00;15.70;102304.00;;;;5025981;28;20205;-80
2024/02/03 07:33:55;;;;;;;3.78;2.30;;;14.30;69.10;15.80;102315.00;;;;5027428;28;20231;-79
2024/02/03 07:36:23;;;;;;;11.63;2.92;;;14.30;69.10;15.80;102313.00;;;;5029326;28;20459;-80
2024/02/03 07:38:50;;;;;;;9.70;3.13;;;14.20;69.00;15.80;102309.00;;;;5028640;28;20685;-79
2024/02/03 07:41:17;;;;;;;7.25;2.45;;;14.30;69.00;15.80;102310.00;;;;5020825;28;20655;-79
2024/02/03 07:43:44;;;;;;;7.47;2.85;;;14.20;69.00;15.80;102317.00;;;;5019958;28;20207;-79
2024/02/03 07:46:12;;;;;;;5.85;2.28;;;14.30;69.00;15.80;102301.00;;;;5022314;28;20583;-80
2024/02/03 07:48:41;;;;;;;5.78;2.00;;;14.30;69.00;15.80;102309.00;;;;5029105;28;20199;-79
2024/02/03 07:51:08;;;;;;;7.65;2.38;;;14.30;69.00;15.80;102312.00;;;;5031204;28;20204;-79
2024/02/03 07:53:35;;;;;;;7.95;2.28;;;14.20;69.00;15.80;102319.00;;;;5030499;28;20262;-79
2024/02/03 07:56:02;;;;;;;3.92;2.10;;;14.30;69.00;15.80;102312.00;;;;5025887;28;20619;-80
2024/02/03 07:58:29;;;;;;;7.28;2.58;;;14.30;69.10;15.80;102313.00;;;;5026872;28;20228;-78
2024/02/03 08:00:58;;;;;;;5.05;2.30;;;14.30;69.00;15.80;102312.00;;;;5030497;28;20203;-80
2024/02/03 08:03:25;;;;;;;6.18;2.45;;;14.30;69.00;15.80;102318.00;;;;5030723;28;20663;-80
2024/02/03 08:05:53;;;;;;;7.45;2.17;;;14.30;69.00;15.80;102329.00;;;;5027562;28;20200;-80
2024/02/03 08:08:20;;;;;;;7.78;2.63;;;14.30;69.00;15.80;102328.00;;;;5025352;28;20673;-80
2024/02/03 08:10:47;;;;;;;5.15;2.47;;;14.30;69.00;15.80;102331.00;;;;5031115;28;20203;-80
2024/02/03 08:13:14;;;;;;;8.65;2.22;;;14.30;69.00;15.80;102329.00;;;;5030202;28;20192;-80
2024/02/03 08:15:41;;;;;;;6.35;2.80;;;14.30;69.00;15.80;102320.00;;;;5028868;28;20219;-80
2024/02/03 08:18:08;;;;;;;6.50;1.73;;;14.30;69.00;15.80;102323.00;;;;5026690;28;20228;-80
2024/02/03 08:20:35;;;;;;;8.77;2.83;;;14.30;69.00;15.90;102325.00;;;;5030452;28;20204;-80
2024/02/03 08:23:04;;;;;;;8.82;2.67;;;14.30;69.00;15.90;102322.00;;;;5030744;28;20654;-80
2024/02/03 08:25:31;;;;;;;4.65;1.90;;;14.30;69.10;15.90;102323.00;;;;5028571;28;20201;-79
2024/02/03 08:27:58;;;;;;;6.18;2.05;;;14.40;69.20;15.90;102329.00;;;;5037882;28;20199;-79
2024/02/03 08:30:24;;;;;;;7.20;2.00;;;14.30;69.20;15.90;102322.00;;;;5025416;28;20651;-80
2024/02/03 08:32:51;;;;;;;6.15;2.00;;;14.30;69.10;15.90;102315.00;;;;5017339;28;20228;-79
2024/02/03 08:35:18;;;;;;;9.30;2.30;;;14.40;69.10;15.90;102315.00;;;;5023652;28;20204;-80
2024/02/03 08:37:45;;;;;;;5.32;2.33;;;14.40;69.10;16.00;102316.00;;;;5028439;28;20224;-81
2024/02/03 08:40:18;;;;;;;5.65;1.70;;;14.40;69.10;16.00;102316.00;;;;5028434;28;20540;-79
2024/02/03 08:42:45;;;;;;;4.55;2.28;;;14.40;69.20;16.00;102318.00;;;;5029967;28;20200;-78
2024/02/03 08:45:12;;;;;;;8.23;2.33;;;14.40;69.20;16.00;102312.00;;;;5027562;28;20196;-79
2024/02/03 08:47:39;;;;;;;4.28;1.48;;;14.40;69.10;16.10;102319.00;;;;5026653;28;20674;-79
2024/02/03 08:50:07;;;;;;;7.70;2.50;;;14.50;69.20;16.10;102319.00;;;;5027303;28;20217;-78
2024/02/03 08:52:34;;;;;;;6.97;1.58;;;14.50;69.20;16.10;102325.00;;;;5027772;28;20234;-79
2024/02/03 08:55:01;;;;;;;6.30;1.92;;;14.50;69.20;16.10;102321.00;;;;5028675;28;20196;-79
2024/02/03 08:57:29;;;;;;;4.80;1.70;;;14.50;69.10;16.10;102316.00;;;;5026715;28;20192;-79
2024/02/03 08:59:56;;;;;;;4.47;1.65;;;14.50;69.10;16.10;102325.00;;;;5024157;28;20204;-80
2024/02/03 09:02:23;;;;;;;4.38;1.70;;;14.50;69.10;16.10;102317.00;;;;5027869;28;20196;-79
2024/02/03 09:04:50;;;;;;;5.65;1.90;;;14.60;69.10;16.20;102325.00;;;;5028059;28;20196;-81
2024/02/03 09:07:17;;;;;;;5.60;1.85;;;14.60;69.10;16.20;102329.00;;;;5028212;28;20208;-81
2024/02/03 09:09:44;;;;;;;6.82;2.35;;;14.60;69.10;16.20;102329.00;;;;5025987;28;20307;-80
2024/02/03 09:12:11;;;;;;;5.13;2.28;;;14.60;69.00;16.20;102322.00;;;;5028744;28;20200;-83
2024/02/03 09:14:39;;;;;;;7.15;2.53;;;14.60;69.00;16.20;102329.00;;;;5028372;28;20588;-82
2024/02/03 09:17:06;;;;;;;7.45;2.38;;;14.60;69.00;16.30;102326.00;;;;5028180;28;20688;-83
2024/02/03 09:19:33;;;;;;;6.07;2.40;;;14.70;69.10;16.30;102327.00;;;;5027877;28;20216;-83
2024/02/03 09:22:00;;;;;;;5.82;1.98;;;14.70;69.00;16.30;102332.00;;;;5028015;28;20565;-82
2024/02/03 09:24:27;;;;;;;6.82;2.03;;;14.70;69.00;16.30;102312.00;;;;5029040;28;20192;-81
2024/02/03 09:26:54;;;;;;;5.55;1.83;;;14.80;69.10;16.40;102322.00;;;;5028604;28;20204;-82
2024/02/03 09:29:21;;;;;;;5.80;1.77;;;14.80;69.00;16.40;102321.00;;;;5028056;28;20184;-82
2024/02/03 09:31:49;;;;;;;14.77;2.63;;;14.80;69.00;16.40;102320.00;;;;5025542;28;20225;-82
2024/02/03 09:34:16;;;;;;;7.10;2.20;;;14.80;68.90;16.40;102322.00;;;;5024556;28;20200;-81
2024/02/03 09:36:43;;;;;;;7.35;2.40;;;14.80;68.80;16.40;102323.00;;;;5028005;28;20201;-81
2024/02/03 09:39:10;;;;;;;6.10;1.58;;;14.80;68.70;16.40;102326.00;;;;5025403;28;20239;-81
2024/02/03 09:41:37;;;;;;;5.63;2.05;;;14.80;68.60;16.40;102327.00;;;;5026347;28;20203;-81
2024/02/03 09:44:05;;;;;;;8.15;2.60;;;14.80;68.60;16.40;102323.00;;;;5027308;28;20623;-81
2024/02/03 09:46:32;;;;;;;5.97;2.10;;;14.80;68.70;16.40;102334.00;;;;5026080;28;20259;-81
2024/02/03 09:49:01;;;;;;;7.13;1.90;;;14.90;68.70;16.40;102332.00;;;;5027050;28;20208;-81
2024/02/03 09:51:31;;;;;;;7.18;2.20;;;14.90;68.80;16.40;102337.00;;;;5024313;28;20204;-80
2024/02/03 09:53:59;;;;;;;8.45;2.00;;;14.90;68.80;16.40;102335.00;;;;5027080;28;20250;-80
2024/02/03 09:56:26;;;;;;;4.93;1.92;;;14.90;68.80;16.50;102341.00;;;;5023190;28;20207;-79
2024/02/03 09:58:53;;;;;;;7.15;2.30;;;14.90;68.80;16.40;102349.00;;;;5024995;28;20220;-80
2024/02/03 10:01:20;;;;;;;6.60;1.73;;;14.90;68.70;16.50;102336.00;;;;5027082;28;20203;-80
2024/02/03 10:03:56;;;;;;;8.50;2.50;;;14.90;68.70;16.40;102338.00;;;;5026694;28;20211;-81
2024/02/03 10:06:25;;;;;;;8.63;2.40;;;14.90;69.30;16.50;102337.00;;;;5026752;28;20302;-81
2024/02/03 10:08:54;;;;;;;5.28;1.70;;;14.90;68.70;16.50;102330.00;;;;5027535;28;20718;-82
2024/02/03 10:11:22;;;;;;;4.93;2.47;;;15.00;68.70;16.50;102337.00;;;;5027708;28;20196;-81
2024/02/03 10:13:50;;;;;;;9.35;2.45;;;14.90;68.60;16.50;102351.00;;;;5026590;28;20207;-80
2024/02/03 10:16:17;;;;;;;4.28;2.42;;;14.90;68.60;16.50;102345.00;;;;5025571;28;20196;-80
2024/02/03 10:18:44;;;;;;;10.35;2.67;;;14.90;68.60;16.50;102345.00;;;;5027486;28;20247;-80
2024/02/03 10:21:11;;;;;;;6.50;2.30;;;14.90;68.60;16.50;102345.00;;;;5027209;28;20207;-81
2024/02/03 10:23:40;;;;;;;5.72;2.33;;;14.90;68.60;16.50;102349.00;;;;5026400;28;20196;-80
2024/02/03 10:26:07;;;;;;;3.22;1.88;;;14.90;68.60;16.50;102350.00;;;;5026682;28;20210;-80
2024/02/03 10:28:43;;;;;;;5.53;2.22;;;15.00;68.60;16.40;102348.00;;;;5027488;28;20208;-80
2024/02/03 10:31:11;;;;;;;5.13;2.40;;;14.90;68.50;16.50;102343.00;;;;5026202;28;20708;-80
2024/02/03 10:33:38;;;;;;;6.60;2.13;;;15.00;68.60;16.50;102354.00;;;;5025626;28;20220;-80
2024/02/03 10:36:06;;;;;;;10.93;2.60;;;15.00;68.70;16.50;102354.00;;;;5025726;28;20203;-80
2024/02/03 10:38:33;;;;;;;6.95;2.05;;;15.00;68.70;16.60;102358.00;;;;5025870;28;20231;-80
2024/02/03 10:41:03;;;;;;;9.57;2.47;;;15.00;68.70;16.50;102347.00;;;;5025212;28;20717;-80
2024/02/03 10:43:35;;;;;;;4.53;1.85;;;15.00;68.70;16.50;102352.00;;;;5027300;28;20617;-80
2024/02/03 10:46:05;;;;;;;9.88;2.10;;;15.00;68.70;16.60;102345.00;;;;5025981;28;20273;-80
2024/02/03 10:48:37;;;;;;;4.53;1.98;;;15.00;68.70;16.60;102354.00;;;;5026537;28;20207;-80
2024/02/03 10:51:15;;;;;;;6.95;2.03;;;15.00;68.70;16.60;102346.00;;;;5025367;28;20690;-80
2024/02/03 10:53:51;;;;;;;6.93;1.80;;;15.10;68.80;16.60;102354.00;;;;5026776;28;20199;-81